Saint-Roch-Des-Aulnaies, Canada
Current Conditions -  °F | °C
As of 8:00 PM on Monday 20 Oct 2014 (Local Time) from CYQB Reporting Station
Broken Clouds Broken Clouds  
Wind Chill: 31°   Ceiling: 13000
Heat Index: 37°   Visibility: 15mi
Dew Point: 28°   Wind: 8mph
Humidity: 70%   Direction: 250°WSW
Pressure: 29.94"   Gusts: NA
Location:  47.32°N, 70.18°W
Report Text: CYQB 210000Z 25007KT 15SM BKN130 BKN240 03/M02 A2994 RMK AC5CI2 SLP141
Loading
Personal Weather Stations






























Interactive Weather Map
Tropical Storm Tracking
New forecast layout! Learn more

10-Day Weather Forecast

Advertisements
Track Severe Weather on mobile